Time;durP1;ratioP1;P1;durP2;ratioP2;P2;SDS_P1;SDS_P2;PMS_P1;PMS_P2;Temp;Humidity;BMP_temperature;BMP_pressure;BME280_temperature;BME280_humidity;BME280_pressure;Samples;Min_cycle;Max_cycle;Signal;HPM_P1;HPM_P2
2021/07/02 00:02:04;;;;;;;39.88;21.25;;;15.40;99.90;;;;;;5026714;28;20038;-80
2021/07/02 00:04:31;;;;;;;41.80;21.25;;;15.40;99.90;;;;;;5024150;28;20403;-78
2021/07/02 00:06:57;;;;;;;31.73;18.38;;;15.40;99.90;;;;;;5023338;28;20049;-80
2021/07/02 00:09:23;;;;;;;34.75;18.25;;;15.40;99.90;;;;;;5030106;28;20041;-79
2021/07/02 00:11:49;;;;;;;34.20;18.48;;;15.50;99.90;;;;;;5020182;28;20480;-81
2021/07/02 00:14:14;;;;;;;;;;;15.40;99.90;;;;;;5029017;28;20466;-80
2021/07/02 00:16:41;;;;;;;34.37;17.27;;;15.40;99.90;;;;;;5027024;28;19924;-80
2021/07/02 00:19:07;;;;;;;;;;;15.40;99.90;;;;;;5032684;28;20454;-80
2021/07/02 00:21:32;;;;;;;32.22;19.23;;;15.30;99.90;;;;;;5031748;28;19921;-80
2021/07/02 00:23:59;;;;;;;35.00;18.23;;;15.30;99.90;;;;;;5025192;28;20060;-82
2021/07/02 00:26:25;;;;;;;34.95;18.67;;;15.30;99.90;;;;;;5019031;28;20034;-82
2021/07/02 00:28:50;;;;;;;34.00;19.67;;;15.30;99.90;;;;;;5030748;28;20037;-80
2021/07/02 00:31:16;;;;;;;;;;;15.40;99.90;;;;;;5029902;28;20037;-81
2021/07/02 00:33:42;;;;;;;36.75;19.10;;;15.30;99.90;;;;;;5031035;28;19921;-82
2021/07/02 00:36:08;;;;;;;;;;;15.30;99.90;;;;;;5029746;28;20033;-81
2021/07/02 00:38:34;;;;;;;33.72;18.00;;;15.30;99.90;;;;;;5018641;28;19917;-81
2021/07/02 00:40:59;;;;;;;;;;;15.30;99.90;;;;;;5030143;28;20034;-81
2021/07/02 00:43:25;;;;;;;33.05;18.27;;;15.30;99.90;;;;;;5042038;28;20287;-81
2021/07/02 00:45:51;;;;;;;34.03;18.67;;;15.30;99.90;;;;;;5029114;28;20041;-81
2021/07/02 00:48:16;;;;;;;36.05;19.27;;;15.30;99.90;;;;;;5031581;28;20155;-80
2021/07/02 00:50:43;;;;;;;;;;;15.30;99.90;;;;;;5023646;28;20096;-79
2021/07/02 00:53:10;;;;;;;35.40;18.83;;;15.30;99.90;;;;;;5029812;28;19921;-82
2021/07/02 00:55:36;;;;;;;40.72;20.80;;;15.30;99.90;;;;;;5016963;28;20096;-81
2021/07/02 00:58:04;;;;;;;39.67;20.02;;;15.30;99.90;;;;;;5018179;28;20480;-81
2021/07/02 01:00:30;;;;;;;38.88;19.63;;;15.30;99.90;;;;;;5028120;28;20071;-82
2021/07/02 01:02:56;;;;;;;43.28;20.55;;;15.20;99.90;;;;;;5013986;28;20046;-82
2021/07/02 01:05:22;;;;;;;40.97;20.65;;;15.20;99.90;;;;;;5027329;28;20041;-81
2021/07/02 01:07:48;;;;;;;;;;;15.20;99.90;;;;;;5028810;28;20388;-80
2021/07/02 01:10:17;;;;;;;35.47;19.05;;;15.20;99.90;;;;;;5013929;28;20024;-81
2021/07/02 01:12:43;;;;;;;33.20;18.20;;;15.20;99.90;;;;;;5014354;28;20068;-79
2021/07/02 01:15:26;;;;;;;39.55;20.10;;;15.20;99.90;;;;;;5014569;28;20396;-81
2021/07/02 01:17:52;;;;;;;38.58;19.13;;;15.20;99.90;;;;;;5012239;28;20038;-81
2021/07/02 01:20:20;;;;;;;39.88;19.90;;;15.10;99.90;;;;;;5020862;28;20045;-81
2021/07/02 01:22:46;;;;;;;32.97;18.73;;;15.20;99.90;;;;;;5020181;28;20224;-82
2021/07/02 01:25:12;;;;;;;37.97;20.23;;;15.20;99.90;;;;;;5015279;28;20046;-81
2021/07/02 01:27:39;;;;;;;38.15;18.27;;;15.20;99.90;;;;;;5017602;28;20060;-80
2021/07/02 01:30:08;;;;;;;38.80;18.40;;;15.30;99.90;;;;;;5016340;28;20502;-79
2021/07/02 01:32:33;;;;;;;37.45;18.38;;;15.30;99.90;;;;;;5029124;28;20047;-79
2021/07/02 01:35:01;;;;;;;41.92;17.98;;;15.30;99.90;;;;;;5029715;28;20439;-81
2021/07/02 01:37:27;;;;;;;39.85;18.92;;;15.30;99.90;;;;;;5027302;28;20037;-81
2021/07/02 01:39:52;;;;;;;40.40;19.42;;;15.20;99.90;;;;;;5024462;28;20048;-82
2021/07/02 01:42:18;;;;;;;40.85;19.45;;;15.20;99.90;;;;;;5019087;28;20038;-79
2021/07/02 01:44:55;;;;;;;35.58;18.05;;;15.30;99.90;;;;;;5016044;28;20053;-80
2021/07/02 01:47:21;;;;;;;;;;;15.30;99.90;;;;;;5013356;28;20104;-79
2021/07/02 01:49:48;;;;;;;34.78;17.25;;;15.20;99.90;;;;;;5022690;28;19952;-79
2021/07/02 01:52:14;;;;;;;40.42;17.67;;;15.20;99.90;;;;;;5016827;28;20042;-82
2021/07/02 01:54:40;;;;;;;34.72;17.88;;;15.20;99.90;;;;;;5019696;28;20061;-80
2021/07/02 01:57:13;;;;;;;37.70;18.50;;;15.10;99.90;;;;;;5022887;28;20072;-79
2021/07/02 01:59:38;;;;;;;32.50;15.88;;;15.20;99.90;;;;;;5021604;28;20034;-79
2021/07/02 02:02:05;;;;;;;36.63;17.67;;;15.10;99.90;;;;;;5019672;28;20044;-79
2021/07/02 02:04:30;;;;;;;32.70;15.95;;;15.20;99.90;;;;;;5011440;28;20054;-80
2021/07/02 02:06:56;;;;;;;45.08;18.02;;;15.10;99.90;;;;;;5012399;28;20384;-81
2021/07/02 02:09:22;;;;;;;34.25;17.05;;;15.10;99.90;;;;;;5020275;28;20034;-80
2021/07/02 02:11:49;;;;;;;30.63;17.33;;;15.10;99.90;;;;;;5021677;28;20137;-80
2021/07/02 02:14:14;;;;;;;32.60;16.20;;;15.10;99.90;;;;;;5016738;28;20496;-78
2021/07/02 02:16:41;;;;;;;;;;;15.10;99.90;;;;;;5024634;28;20113;-80
2021/07/02 02:19:08;;;;;;;27.67;14.88;;;15.10;99.90;;;;;;5023456;28;20047;-80
2021/07/02 02:21:34;;;;;;;29.30;16.40;;;15.10;99.90;;;;;;5026388;28;20128;-80
2021/07/02 02:24:00;;;;;;;30.25;15.25;;;15.10;99.90;;;;;;5019429;28;20038;-79
2021/07/02 02:26:26;;;;;;;29.65;16.23;;;15.20;99.90;;;;;;5017230;28;20112;-79
2021/07/02 02:28:52;;;;;;;30.17;14.70;;;15.10;99.90;;;;;;5014333;28;20038;-80
2021/07/02 02:31:18;;;;;;;30.42;15.30;;;15.10;99.90;;;;;;5023415;28;20040;-81
2021/07/02 02:33:44;;;;;;;21.90;13.88;;;15.10;99.90;;;;;;5025524;28;20041;-81
2021/07/02 02:36:09;;;;;;;;;;;15.10;99.90;;;;;;5024335;28;20061;-80
2021/07/02 02:38:35;;;;;;;29.77;13.48;;;15.10;99.90;;;;;;5026135;28;20291;-81
2021/07/02 02:41:01;;;;;;;28.25;12.55;;;15.00;99.90;;;;;;5027198;28;20030;-81
2021/07/02 02:43:27;;;;;;;20.90;11.55;;;15.00;99.90;;;;;;5014789;28;20431;-80
2021/07/02 02:45:53;;;;;;;21.98;12.38;;;15.00;99.90;;;;;;5016334;28;20080;-80
2021/07/02 02:48:18;;;;;;;;;;;15.00;99.90;;;;;;5013350;28;20089;-80
2021/07/02 02:50:44;;;;;;;20.45;11.73;;;15.00;99.90;;;;;;5018201;28;19921;-81
2021/07/02 02:53:10;;;;;;;22.73;12.65;;;15.00;99.90;;;;;;5015089;28;20041;-79
2021/07/02 02:55:35;;;;;;;;;;;15.00;99.90;;;;;;5012563;28;20042;-79
2021/07/02 02:58:01;;;;;;;23.77;13.07;;;15.00;99.90;;;;;;5016128;28;19917;-81
2021/07/02 03:00:27;;;;;;;;;;;15.00;99.90;;;;;;5022929;28;20037;-80
2021/07/02 03:02:53;;;;;;;19.65;11.73;;;14.90;99.90;;;;;;5030552;28;19963;-79
2021/07/02 03:05:18;;;;;;;24.77;12.90;;;15.00;99.90;;;;;;5029423;28;20407;-80
2021/07/02 03:07:44;;;;;;;22.90;11.73;;;15.00;99.90;;;;;;5031003;28;20034;-81
2021/07/02 03:10:10;;;;;;;20.48;11.27;;;15.00;99.90;;;;;;5016151;28;20041;-79
2021/07/02 03:12:36;;;;;;;23.23;11.65;;;15.00;99.90;;;;;;5010897;28;20268;-81
2021/07/02 03:15:04;;;;;;;22.02;12.65;;;15.00;99.90;;;;;;5023930;28;20045;-81
2021/07/02 03:17:29;;;;;;;22.45;12.90;;;15.00;99.90;;;;;;5027553;28;20448;-80
2021/07/02 03:19:55;;;;;;;21.20;11.93;;;15.00;99.90;;;;;;5034074;28;20091;-81
2021/07/02 03:22:21;;;;;;;25.55;12.00;;;15.00;99.90;;;;;;5015879;28;20467;-81
2021/07/02 03:24:47;;;;;;;22.65;11.90;;;15.00;99.90;;;;;;5022351;28;20045;-82
2021/07/02 03:27:13;;;;;;;24.30;11.85;;;15.00;99.90;;;;;;5016442;28;20125;-81
2021/07/02 03:29:39;;;;;;;22.00;11.60;;;15.00;99.90;;;;;;5027233;28;20100;-81
2021/07/02 03:32:07;;;;;;;20.90;12.25;;;15.00;99.90;;;;;;5017913;28;20455;-81
2021/07/02 03:34:34;;;;;;;21.23;11.93;;;15.00;99.90;;;;;;5017378;28;20033;-81
2021/07/02 03:37:00;;;;;;;22.25;12.50;;;15.00;99.90;;;;;;5014188;28;20100;-81
2021/07/02 03:39:26;;;;;;;20.98;11.57;;;15.00;99.90;;;;;;5022409;28;20471;-80
2021/07/02 03:41:52;;;;;;;22.38;12.00;;;15.00;99.90;;;;;;5020366;28;20121;-81
2021/07/02 03:44:18;;;;;;;19.73;11.50;;;15.00;99.90;;;;;;5032928;28;20095;-81
2021/07/02 03:46:43;;;;;;;20.63;12.18;;;15.00;99.90;;;;;;5030334;28;20030;-81
2021/07/02 03:49:09;;;;;;;21.48;12.02;;;15.00;99.90;;;;;;5024537;28;20033;-81
2021/07/02 03:51:35;;;;;;;20.95;12.82;;;15.00;99.90;;;;;;5022024;28;20046;-81
2021/07/02 03:54:02;;;;;;;24.17;12.73;;;15.00;99.90;;;;;;5032623;28;20040;-80
2021/07/02 03:56:27;;;;;;;24.48;11.32;;;15.00;99.90;;;;;;5016598;28;20116;-82
2021/07/02 03:58:53;;;;;;;21.10;11.32;;;15.00;99.90;;;;;;5018671;28;20037;-81
2021/07/02 04:01:19;;;;;;;24.05;12.68;;;15.00;99.90;;;;;;5029525;28;20088;-81
2021/07/02 04:03:45;;;;;;;22.42;11.25;;;15.00;99.90;;;;;;5024633;28;20133;-81
2021/07/02 04:06:10;;;;;;;;;;;15.00;99.90;;;;;;5032356;28;20049;-81
2021/07/02 04:08:36;;;;;;;24.30;12.40;;;15.00;99.90;;;;;;5034942;28;20000;-80
2021/07/02 04:11:03;;;;;;;19.52;11.95;;;15.10;99.90;;;;;;5025918;28;20038;-81
2021/07/02 04:13:29;;;;;;;24.63;12.93;;;15.10;99.90;;;;;;5027844;28;20464;-81
2021/07/02 04:15:55;;;;;;;21.27;11.90;;;15.10;99.90;;;;;;5002420;28;20076;-81
2021/07/02 04:18:21;;;;;;;19.67;12.02;;;15.20;99.90;;;;;;5023995;28;20084;-80
2021/07/02 04:20:47;;;;;;;20.48;11.85;;;15.20;99.90;;;;;;5025080;28;20050;-82
2021/07/02 04:23:13;;;;;;;22.92;12.43;;;15.30;99.90;;;;;;5014346;28;20042;-82
2021/07/02 04:25:39;;;;;;;21.08;12.20;;;15.30;99.90;;;;;;5018780;28;20372;-81
2021/07/02 04:28:06;;;;;;;24.40;12.23;;;15.30;99.90;;;;;;5021457;28;20077;-81
2021/07/02 04:30:32;;;;;;;23.65;11.93;;;15.30;99.90;;;;;;5029888;28;20045;-81
2021/07/02 04:32:57;;;;;;;22.98;12.10;;;15.30;99.90;;;;;;5021367;28;20053;-82
2021/07/02 04:35:23;;;;;;;21.25;12.35;;;15.40;99.90;;;;;;5031360;28;20083;-81
2021/07/02 04:37:49;;;;;;;;;;;15.40;99.90;;;;;;5023484;28;20042;-81
2021/07/02 04:40:15;;;;;;;18.38;10.98;;;15.50;99.90;;;;;;5023283;28;19928;-80
2021/07/02 04:42:41;;;;;;;24.38;12.65;;;15.50;99.90;;;;;;5014322;28;20049;-81
2021/07/02 04:45:08;;;;;;;21.70;12.25;;;15.50;99.90;;;;;;5016380;28;20483;-81
2021/07/02 04:47:34;;;;;;;23.13;12.00;;;15.50;99.90;;;;;;5020751;28;20037;-81
2021/07/02 04:50:02;;;;;;;20.00;12.63;;;15.60;99.90;;;;;;5031844;28;20042;-82
2021/07/02 04:52:28;;;;;;;23.52;11.52;;;15.70;99.90;;;;;;5035048;28;20042;-81
2021/07/02 04:54:54;;;;;;;18.50;11.10;;;15.70;99.90;;;;;;5039395;28;20040;-82
2021/07/02 04:57:20;;;;;;;;;;;15.70;99.90;;;;;;5032426;28;20041;-82
2021/07/02 04:59:49;;;;;;;18.08;10.57;;;15.70;99.90;;;;;;5032871;28;20004;-81
2021/07/02 05:02:14;;;;;;;22.55;11.60;;;15.70;99.90;;;;;;5027989;28;20041;-80
2021/07/02 05:04:40;;;;;;;20.45;11.57;;;15.70;99.90;;;;;;5030106;28;20054;-82
2021/07/02 05:07:08;;;;;;;20.58;11.15;;;15.70;99.90;;;;;;5019663;28;20043;-80
2021/07/02 05:09:35;;;;;;;19.75;11.48;;;15.70;99.90;;;;;;5023111;28;20124;-80
2021/07/02 05:12:03;;;;;;;17.08;10.70;;;15.70;99.90;;;;;;5023286;28;20479;-81
2021/07/02 05:14:29;;;;;;;20.05;11.95;;;15.80;99.90;;;;;;5028850;28;20038;-81
2021/07/02 05:16:54;;;;;;;21.02;12.35;;;15.80;99.90;;;;;;5024476;28;20406;-81
2021/07/02 05:19:20;;;;;;;21.75;11.93;;;15.80;99.90;;;;;;5017576;28;20042;-82
2021/07/02 05:21:46;;;;;;;23.33;11.02;;;15.80;99.90;;;;;;5031264;28;20055;-81
2021/07/02 05:24:12;;;;;;;;;;;15.70;99.90;;;;;;5013778;28;20057;-82
2021/07/02 05:26:37;;;;;;;20.27;12.27;;;15.70;99.90;;;;;;5063286;28;19917;-81
2021/07/02 05:29:04;;;;;;;22.15;12.43;;;15.70;99.90;;;;;;5023664;28;20104;-81
2021/07/02 05:31:30;;;;;;;22.85;12.57;;;15.70;99.90;;;;;;5015790;28;20041;-82
2021/07/02 05:33:55;;;;;;;;;;;15.70;99.90;;;;;;5026008;28;20037;-80
2021/07/02 05:36:21;;;;;;;17.25;11.48;;;15.70;99.90;;;;;;5013584;28;19953;-81
2021/07/02 05:38:47;;;;;;;23.02;12.75;;;15.80;99.90;;;;;;5027712;28;20067;-82
2021/07/02 05:41:13;;;;;;;17.92;11.70;;;15.90;99.90;;;;;;5020249;28;20121;-81
2021/07/02 05:43:39;;;;;;;22.40;11.48;;;15.90;99.90;;;;;;5014014;28;20527;-81
2021/07/02 05:46:06;;;;;;;;;;;16.00;99.90;;;;;;5022599;28;20080;-82
2021/07/02 05:48:33;;;;;;;22.88;11.52;;;16.00;99.90;;;;;;5022508;28;19917;-79
2021/07/02 05:50:59;;;;;;;21.17;11.98;;;16.10;99.90;;;;;;5015130;28;20034;-81
2021/07/02 05:53:24;;;;;;;22.42;12.52;;;16.20;99.90;;;;;;5018406;28;20136;-82
2021/07/02 05:55:50;;;;;;;18.55;11.75;;;16.20;99.90;;;;;;5019307;28;20140;-80
2021/07/02 05:58:16;;;;;;;;;;;16.30;99.90;;;;;;5023211;28;20045;-81
2021/07/02 06:00:42;;;;;;;20.15;12.90;;;16.40;99.90;;;;;;5030677;28;19917;-81
2021/07/02 06:03:08;;;;;;;;;;;16.40;99.90;;;;;;5017388;28;20075;-81
2021/07/02 06:05:37;;;;;;;24.92;13.05;;;16.40;99.90;;;;;;5019119;28;19917;-82
2021/07/02 06:08:03;;;;;;;19.85;12.43;;;16.40;99.90;;;;;;5020426;28;20045;-81
2021/07/02 06:10:32;;;;;;;21.25;11.95;;;16.50;99.90;;;;;;5017458;28;20033;-82
2021/07/02 06:12:58;;;;;;;21.52;12.48;;;16.50;99.90;;;;;;5013166;28;20064;-81
2021/07/02 06:15:24;;;;;;;30.15;11.82;;;16.50;99.90;;;;;;5028405;28;20498;-82
2021/07/02 06:17:50;;;;;;;;;;;16.50;99.90;;;;;;5018855;28;20121;-82
2021/07/02 06:20:17;;;;;;;22.20;11.60;;;16.40;99.90;;;;;;5031288;28;20015;-81
2021/07/02 06:22:44;;;;;;;17.70;12.07;;;16.50;99.90;;;;;;5012880;28;20061;-81
2021/07/02 06:25:12;;;;;;;21.88;12.13;;;16.50;99.90;;;;;;5025974;28;20067;-81
2021/07/02 06:27:38;;;;;;;21.15;12.40;;;16.50;99.90;;;;;;5026815;28;20034;-81
2021/07/02 06:30:06;;;;;;;19.00;11.90;;;16.50;99.90;;;;;;5014729;28;20048;-81
2021/07/02 06:32:31;;;;;;;22.38;12.20;;;16.50;99.90;;;;;;5020070;28;20057;-81
2021/07/02 06:34:58;;;;;;;23.02;13.13;;;16.50;99.90;;;;;;5031209;28;20037;-81
2021/07/02 06:37:23;;;;;;;20.45;13.05;;;16.60;99.90;;;;;;5012213;28;20041;-81
2021/07/02 06:39:51;;;;;;;19.77;12.60;;;16.60;99.90;;;;;;5023583;28;20041;-81
2021/07/02 06:42:16;;;;;;;21.95;13.68;;;16.70;99.90;;;;;;5034378;28;20153;-80
2021/07/02 06:44:42;;;;;;;;;;;16.70;99.90;;;;;;5031342;28;20034;-81
2021/07/02 06:47:08;;;;;;;19.98;12.48;;;16.80;99.90;;;;;;5026318;28;20264;-81
2021/07/02 06:49:34;;;;;;;;;;;16.80;99.90;;;;;;5032380;28;20045;-81
2021/07/02 06:52:00;;;;;;;21.25;13.10;;;16.90;99.90;;;;;;5058553;28;19971;-81
2021/07/02 06:54:26;;;;;;;;;;;17.00;99.90;;;;;;5019162;28;20061;-81
2021/07/02 06:57:01;;;;;;;21.67;12.48;;;17.10;99.90;;;;;;5035125;28;19992;-81
2021/07/02 06:59:34;;;;;;;21.88;12.23;;;17.20;99.90;;;;;;5032954;28;20103;-81
2021/07/02 07:02:01;;;;;;;19.80;11.82;;;17.40;99.90;;;;;;5035549;28;20037;-82
2021/07/02 07:04:37;;;;;;;20.77;12.70;;;17.50;99.90;;;;;;5033099;28;20079;-81
2021/07/02 07:07:04;;;;;;;18.98;12.05;;;17.60;99.90;;;;;;5035044;28;20065;-81
2021/07/02 07:09:31;;;;;;;22.02;12.55;;;17.70;99.90;;;;;;5034499;28;20048;-82
2021/07/02 07:11:59;;;;;;;17.95;10.90;;;17.70;99.90;;;;;;5032933;28;20550;-82
2021/07/02 07:14:25;;;;;;;20.15;12.00;;;17.70;99.90;;;;;;5033488;28;20419;-80
2021/07/02 07:16:50;;;;;;;;;;;17.70;99.90;;;;;;5020730;28;20053;-82
2021/07/02 07:19:16;;;;;;;21.33;12.27;;;17.60;99.90;;;;;;5027135;28;20465;-81
2021/07/02 07:21:42;;;;;;;;;;;17.50;99.90;;;;;;5034477;28;20483;-81
2021/07/02 07:24:10;;;;;;;21.48;11.85;;;17.50;99.90;;;;;;5026553;28;19917;-81
2021/07/02 07:26:37;;;;;;;23.30;12.48;;;17.40;99.90;;;;;;5019710;28;20117;-82
2021/07/02 07:29:07;;;;;;;20.63;12.48;;;17.40;99.90;;;;;;5027025;28;20117;-81
2021/07/02 07:31:34;;;;;;;22.38;12.85;;;17.40;99.90;;;;;;5017309;28;20038;-82
2021/07/02 07:34:02;;;;;;;20.88;13.00;;;17.30;99.90;;;;;;5034051;28;20087;-82
2021/07/02 07:36:32;;;;;;;20.83;13.23;;;17.30;99.90;;;;;;5030701;28;20086;-81
2021/07/02 07:39:09;;;;;;;23.30;12.38;;;17.30;99.90;;;;;;5033980;28;20030;-82
2021/07/02 07:41:35;;;;;;;20.95;12.50;;;17.20;99.90;;;;;;5021242;28;20049;-82
2021/07/02 07:44:01;;;;;;;19.65;12.52;;;17.10;99.90;;;;;;5020625;28;20034;-82
2021/07/02 07:46:28;;;;;;;21.92;12.27;;;17.10;99.90;;;;;;5029484;28;20048;-82
2021/07/02 07:48:55;;;;;;;24.98;13.23;;;17.10;99.90;;;;;;5026324;28;20068;-82
2021/07/02 07:53:53;;;;;;;21.95;13.43;;;17.20;99.90;;;;;;5026301;28;20042;-82
2021/07/02 07:56:19;;;;;;;25.85;13.52;;;17.20;99.90;;;;;;5012631;28;20084;-82
2021/07/02 07:58:45;;;;;;;23.75;13.48;;;17.30;99.90;;;;;;5030342;28;20057;-82
2021/07/02 08:01:11;;;;;;;;;;;17.40;99.90;;;;;;5053016;28;20025;-82
2021/07/02 08:03:37;;;;;;;22.80;13.63;;;17.40;99.90;;;;;;5025103;28;20306;-82
2021/07/02 08:06:03;;;;;;;25.25;13.88;;;17.40;99.90;;;;;;5029223;28;20037;-80
2021/07/02 08:08:32;;;;;;;27.95;13.93;;;17.40;99.90;;;;;;5028234;28;21011;-81
2021/07/02 08:11:00;;;;;;;21.48;12.95;;;17.40;99.90;;;;;;5032922;28;20064;-84
2021/07/02 08:13:28;;;;;;;20.50;12.63;;;17.50;99.90;;;;;;5025236;28;20045;-83
2021/07/02 08:15:56;;;;;;;22.13;12.63;;;17.50;99.90;;;;;;5030510;28;20042;-80
2021/07/02 08:18:23;;;;;;;24.20;13.23;;;17.60;99.90;;;;;;5020757;28;20042;-80
2021/07/02 08:20:49;;;;;;;20.45;11.55;;;17.70;99.90;;;;;;5024467;28;20061;-82
2021/07/02 08:23:14;;;;;;;22.58;13.18;;;17.80;99.90;;;;;;5013161;28;20172;-80
2021/07/02 08:25:40;;;;;;;;;;;17.90;99.90;;;;;;5018785;28;20033;-89
2021/07/02 08:30:51;;;;;;;20.30;12.13;;;18.00;99.90;;;;;;5029934;28;20107;-85
2021/07/02 08:33:19;;;;;;;19.17;11.85;;;18.10;99.90;;;;;;5026802;28;20092;-88
2021/07/02 08:35:48;;;;;;;18.02;11.32;;;18.20;99.90;;;;;;5012667;28;20037;-86
2021/07/02 08:38:16;;;;;;;18.42;11.43;;;18.20;99.90;;;;;;5028774;28;20032;-86
2021/07/02 08:40:42;;;;;;;19.60;11.40;;;18.30;99.90;;;;;;5033086;28;20037;-87
2021/07/02 08:43:09;;;;;;;17.80;11.60;;;18.40;99.90;;;;;;5029048;28;20050;-80
2021/07/02 08:45:36;;;;;;;19.92;12.07;;;18.60;99.90;;;;;;5022236;28;20045;-82
2021/07/02 08:48:04;;;;;;;20.30;12.00;;;18.50;99.90;;;;;;5026664;28;20025;-87
2021/07/02 08:50:32;;;;;;;18.15;11.45;;;18.50;99.90;;;;;;5016800;28;20046;-85
2021/07/02 08:52:58;;;;;;;17.42;10.52;;;18.50;99.90;;;;;;5032183;28;20080;-84
2021/07/02 08:55:23;;;;;;;;;;;18.40;99.90;;;;;;5023189;28;20062;-85
2021/07/02 08:57:49;;;;;;;18.27;11.73;;;18.40;99.90;;;;;;5016928;28;19921;-84
2021/07/02 09:00:16;;;;;;;;;;;18.40;99.90;;;;;;5032788;28;20034;-85
2021/07/02 09:02:41;;;;;;;19.53;11.90;;;18.50;99.90;;;;;;5032603;28;19917;-85
2021/07/02 09:05:26;;;;;;;;;;;18.70;99.90;;;;;;5002197;28;20415;-83
2021/07/02 09:07:52;;;;;;;18.58;11.48;;;18.80;99.90;;;;;;5018542;28;19917;-84
2021/07/02 09:10:17;;;;;;;;;;;18.80;99.90;;;;;;5033158;28;20037;-84
2021/07/02 09:12:52;;;;;;;16.85;10.38;;;18.80;99.90;;;;;;5028712;28;19956;-82
2021/07/02 09:15:18;;;;;;;18.27;10.93;;;19.00;99.90;;;;;;5015591;28;20042;-84
2021/07/02 09:17:50;;;;;;;;;;;19.10;99.90;;;;;;5020001;28;20036;-83
2021/07/02 09:20:27;;;;;;;19.40;12.00;;;19.00;99.90;;;;;;5018396;28;19921;-82
2021/07/02 09:22:55;;;;;;;18.55;11.18;;;19.10;99.90;;;;;;5028978;28;20129;-86
2021/07/02 09:25:38;;;;;;;22.38;12.40;;;19.10;99.90;;;;;;5035760;28;20632;-84
2021/07/02 09:28:05;;;;;;;16.00;11.00;;;19.10;99.90;;;;;;5034816;28;20037;-84
2021/07/02 09:30:34;;;;;;;20.00;11.30;;;19.30;99.90;;;;;;5028739;28;20037;-80
2021/07/02 09:33:06;;;;;;;16.75;11.00;;;19.60;99.90;;;;;;5029655;28;20087;-81
2021/07/02 09:35:36;;;;;;;19.55;11.13;;;19.80;99.90;;;;;;5029159;28;20042;-81
2021/07/02 09:38:03;;;;;;;16.30;11.57;;;19.90;99.90;;;;;;5029526;28;20042;-82
2021/07/02 09:40:35;;;;;;;17.15;10.73;;;20.10;99.90;;;;;;5032148;28;20029;-81
2021/07/02 09:43:19;;;;;;;16.15;10.52;;;20.00;99.90;;;;;;5027814;28;20539;-80
2021/07/02 09:46:02;;;;;;;18.45;10.00;;;20.10;99.90;;;;;;5034506;28;20042;-85
2021/07/02 09:48:29;;;;;;;18.23;9.88;;;20.10;99.90;;;;;;5016928;28;20068;-82
2021/07/02 09:51:05;;;;;;;15.95;10.57;;;20.00;99.90;;;;;;5021898;28;20471;-81
2021/07/02 09:53:34;;;;;;;14.13;9.50;;;20.00;99.90;;;;;;5014848;28;20136;-84
2021/07/02 09:56:04;;;;;;;17.02;9.98;;;19.90;99.90;;;;;;5018772;28;20060;-81
2021/07/02 09:58:36;;;;;;;14.85;9.60;;;19.90;99.90;;;;;;5025377;28;20091;-80
2021/07/02 10:01:04;;;;;;;16.33;10.05;;;19.90;99.90;;;;;;5023083;28;20033;-81
2021/07/02 10:03:40;;;;;;;15.18;9.93;;;20.00;99.90;;;;;;5020353;28;20057;-81
2021/07/02 10:06:19;;;;;;;14.75;9.48;;;20.10;99.90;;;;;;5027808;28;20490;-81
2021/07/02 10:08:45;;;;;;;15.32;9.48;;;20.20;99.90;;;;;;5020090;28;20103;-81
2021/07/02 10:11:13;;;;;;;14.93;8.75;;;20.30;99.90;;;;;;5022626;28;20041;-81
2021/07/02 10:13:41;;;;;;;14.45;9.27;;;20.40;99.90;;;;;;5026290;28;20108;-81
2021/07/02 10:16:10;;;;;;;15.60;9.52;;;20.60;99.90;;;;;;5020206;28;20046;-80
2021/07/02 10:18:44;;;;;;;13.93;9.68;;;20.90;99.90;;;;;;5026334;28;20455;-81
2021/07/02 10:21:11;;;;;;;17.80;10.65;;;21.30;99.90;;;;;;5018464;28;20044;-81
2021/07/02 10:23:41;;;;;;;12.98;9.52;;;21.70;99.90;;;;;;5024636;28;20037;-80
2021/07/02 10:26:08;;;;;;;14.25;9.63;;;22.10;99.90;;;;;;5027229;28;20049;-83
2021/07/02 10:28:39;;;;;;;15.43;9.07;;;22.60;99.90;;;;;;5031423;28;20159;-79
2021/07/02 10:31:10;;;;;;;12.05;8.70;;;23.00;99.90;;;;;;5024153;28;20046;-81
2021/07/02 10:33:41;;;;;;;12.93;7.85;;;23.30;99.90;;;;;;5019135;28;20072;-80
2021/07/02 10:36:08;;;;;;;11.43;7.65;;;23.30;99.90;;;;;;5022218;28;20060;-83
2021/07/02 10:38:34;;;;;;;11.98;8.07;;;23.10;99.90;;;;;;5030932;28;20039;-82
2021/07/02 10:41:21;;;;;;;9.98;7.60;;;23.00;99.90;;;;;;5035991;28;20375;-82
2021/07/02 10:44:06;;;;;;;;;;;22.90;99.90;;;;;;5025822;28;20049;-80
2021/07/02 10:46:56;;;;;;;11.18;7.72;;;22.80;99.90;;;;;;5025265;28;19921;-85
2021/07/02 10:49:35;;;;;;;11.40;7.70;;;22.50;99.90;;;;;;5019738;28;20057;-85
2021/07/02 10:52:19;;;;;;;11.75;7.97;;;22.10;99.90;;;;;;5030583;28;20060;-84
2021/07/02 10:54:45;;;;;;;12.85;8.27;;;21.80;99.90;;;;;;5019100;28;20037;-84
2021/07/02 10:57:13;;;;;;;10.70;8.05;;;21.80;99.90;;;;;;5021654;28;20033;-81
2021/07/02 10:59:41;;;;;;;10.20;7.35;;;21.90;99.90;;;;;;5016419;28;20029;-82
2021/07/02 11:02:12;;;;;;;11.48;8.48;;;21.90;99.90;;;;;;5027783;28;20034;-83
2021/07/02 11:04:38;;;;;;;12.00;8.18;;;21.70;99.90;;;;;;5017050;28;20056;-82
2021/07/02 11:07:13;;;;;;;12.90;8.82;;;21.70;99.90;;;;;;5035059;28;20038;-81
2021/07/02 11:10:00;;;;;;;12.80;8.77;;;21.80;99.90;;;;;;5033316;28;20026;-82
2021/07/02 11:12:30;;;;;;;12.07;8.48;;;21.90;99.90;;;;;;5025876;28;20128;-83
2021/07/02 11:15:06;;;;;;;12.02;8.20;;;21.90;99.90;;;;;;5025296;28;20036;-79
2021/07/02 11:17:42;;;;;;;12.50;9.15;;;21.80;99.90;;;;;;5019872;28;20037;-79
2021/07/02 11:20:23;;;;;;;13.63;9.77;;;21.80;99.90;;;;;;5020292;28;20049;-79
2021/07/02 11:22:58;;;;;;;12.60;8.82;;;22.00;99.90;;;;;;5034427;28;20114;-82
2021/07/02 11:26:15;;;;;;;12.60;8.48;;;21.80;99.90;;;;;;5022503;28;20038;-80
2021/07/02 11:28:50;;;;;;;12.70;9.10;;;21.90;99.90;;;;;;5023626;28;20068;-79
2021/07/02 11:31:18;;;;;;;13.60;9.07;;;22.00;99.90;;;;;;5020420;28;20456;-79
2021/07/02 11:33:45;;;;;;;11.73;8.57;;;22.10;99.90;;;;;;5025135;28;20042;-78
2021/07/02 11:36:14;;;;;;;12.57;8.88;;;22.10;99.90;;;;;;5028276;28;20050;-79
2021/07/02 11:38:49;;;;;;;10.57;8.32;;;22.10;99.90;;;;;;5032188;28;20084;-79
2021/07/02 11:41:32;;;;;;;14.90;8.95;;;22.20;99.90;;;;;;5027362;28;20037;-79
2021/07/02 11:44:01;;;;;;;13.90;8.10;;;22.50;99.90;;;;;;5026176;28;20051;-79
2021/07/02 11:46:27;;;;;;;11.57;8.75;;;22.60;99.90;;;;;;5024585;28;20475;-78
2021/07/02 11:48:55;;;;;;;11.68;8.70;;;22.70;99.90;;;;;;5032589;28;20089;-80
2021/07/02 11:51:26;;;;;;;13.38;7.97;;;22.80;99.90;;;;;;5029803;28;20091;-78
2021/07/02 11:53:57;;;;;;;14.30;8.30;;;23.10;99.90;;;;;;5027577;28;20041;-79
2021/07/02 11:56:35;;;;;;;11.98;7.40;;;23.40;99.90;;;;;;5028577;28;20044;-80
2021/07/02 11:59:07;;;;;;;11.45;8.70;;;23.50;99.90;;;;;;5023431;28;20399;-80
2021/07/02 12:01:40;;;;;;;12.38;9.00;;;23.70;99.90;;;;;;5032754;28;20033;-80
2021/07/02 12:04:09;;;;;;;9.88;8.00;;;24.00;99.90;;;;;;5027703;28;20080;-80
2021/07/02 12:06:42;;;;;;;11.05;7.68;;;24.00;99.90;;;;;;5023843;28;20038;-80
2021/07/02 12:09:09;;;;;;;11.50;7.78;;;23.60;99.90;;;;;;5029801;28;20578;-80
2021/07/02 12:11:39;;;;;;;12.68;9.23;;;23.30;99.90;;;;;;5030908;28;20037;-79
2021/07/02 12:14:08;;;;;;;12.77;7.55;;;23.10;99.90;;;;;;5026856;28;20077;-80
2021/07/02 12:16:42;;;;;;;12.93;8.13;;;22.80;99.90;;;;;;5052002;28;20038;-80
2021/07/02 12:19:15;;;;;;;11.23;7.55;;;22.60;99.90;;;;;;5031962;28;20030;-80
2021/07/02 12:22:07;;;;;;;10.25;7.43;;;22.60;99.90;;;;;;5023749;28;20043;-81
2021/07/02 12:24:35;;;;;;;13.02;7.70;;;22.50;99.90;;;;;;5025808;28;20348;-80
2021/07/02 12:27:03;;;;;;;10.90;7.32;;;22.40;99.90;;;;;;5022863;28;20037;-81
2021/07/02 12:29:31;;;;;;;10.70;7.45;;;22.20;99.90;;;;;;5026243;28;20033;-81
2021/07/02 12:32:03;;;;;;;12.27;8.05;;;22.10;99.90;;;;;;5028346;28;20416;-81
2021/07/02 12:34:37;;;;;;;11.65;7.63;;;22.00;99.90;;;;;;5031970;28;20120;-80
2021/07/02 12:37:14;;;;;;;17.13;9.77;;;21.90;99.90;;;;;;5031255;28;20033;-80
2021/07/02 12:39:50;;;;;;;13.40;9.60;;;21.60;99.90;;;;;;5035377;28;20047;-81
2021/07/02 12:42:31;;;;;;;12.75;8.55;;;21.60;99.90;;;;;;5024368;28;20042;-80
2021/07/02 12:45:00;;;;;;;16.63;10.70;;;21.60;99.90;;;;;;5028931;28;20080;-80
2021/07/02 12:47:30;;;;;;;15.95;10.80;;;21.50;99.90;;;;;;5022642;28;20041;-80
2021/07/02 12:50:04;;;;;;;18.52;11.13;;;21.50;99.90;;;;;;5027900;28;20487;-80
2021/07/02 12:55:14;;;;;;;15.23;11.13;;;21.70;99.90;;;;;;5031006;28;20041;-80